Time;durP1;ratioP1;P1;durP2;ratioP2;P2;SDS_P1;SDS_P2;PMS_P1;PMS_P2;Temp;Humidity;BMP_temperature;BMP_pressure;BME280_temperature;BME280_humidity;BME280_pressure;Samples;Min_cycle;Max_cycle;Signal;HPM_P1;HPM_P2
2022/09/19 00:00:24;;;;;;;;;;;;;;;21.25;49.84;101291.56;5146956;27;19989;-35
2022/09/19 00:02:49;;;;;;;;;;;;;;;21.25;49.96;101288.78;5147960;27;19938;-35
2022/09/19 00:05:15;;;;;;;;;;;;;;;21.25;49.89;101284.06;5150438;27;20311;-35
2022/09/19 00:07:43;;;;;;;;;;;;;;;21.24;49.97;101285.19;5146859;27;19962;-35
2022/09/19 00:10:08;;;;;;;;;;;;;;;21.25;49.84;101284.06;5152084;27;19970;-35
2022/09/19 00:12:34;;;;;;;;;;;;;;;21.24;49.90;101289.88;5131106;27;19923;-35
2022/09/19 00:15:00;;;;;;;;;;;;;;;21.24;49.96;101282.41;5145830;27;19930;-35
2022/09/19 00:17:25;;;;;;;;;;;;;;;21.24;49.86;101287.09;5143938;27;20033;-35
2022/09/19 00:19:51;;;;;;;;;;;;;;;21.24;49.98;101287.09;5148572;27;19923;-35
2022/09/19 00:22:17;;;;;;;;;;;;;;;21.24;49.97;101282.41;5148972;27;19927;-35
2022/09/19 00:24:45;;;;;;;;;;;;;;;21.24;49.90;101289.88;5133480;27;19926;-35
2022/09/19 00:27:12;;;;;;;;;;;;;;;21.23;49.89;101289.03;5143532;27;20014;-35
2022/09/19 00:29:38;;;;;;;;;;;;;;;21.22;49.94;101281.03;5149807;27;20099;-35
2022/09/19 00:32:07;;;;;;;;;;;;;;;21.24;49.99;101287.97;5144819;27;19942;-35
2022/09/19 00:34:32;;;;;;;;;;;;;;;21.22;49.90;101283.81;5147705;27;20456;-35
2022/09/19 00:36:58;;;;;;;;;;;;;;;21.23;49.91;101279.91;5148922;27;19923;-35
2022/09/19 00:39:24;;;;;;;;;;;;;;;21.21;49.95;101280.22;5147218;27;20015;-35
2022/09/19 00:41:50;;;;;;;;;;;;;;;21.23;49.92;101282.69;5128711;27;19927;-35
2022/09/19 00:47:05;;;;;;;;;;;;;;;21.23;50.00;101275.19;5174319;27;20063;-35
2022/09/19 00:49:31;;;;;;;;;;;;;;;21.22;49.92;101281.84;5148334;27;21281;-35
2022/09/19 00:52:00;;;;;;;;;;;;;;;21.23;49.85;101286.28;5152380;27;20335;-35
2022/09/19 00:54:42;;;;;;;;;;;;;;;21.22;49.85;101275.50;5138082;27;20014;-35
2022/09/19 00:57:08;;;;;;;;;;;;;;;21.23;49.91;101279.91;5134155;27;20483;-35
2022/09/19 00:59:34;;;;;;;;;;;;;;;21.23;49.86;101285.44;5137324;27;19983;-35
2022/09/19 01:02:04;;;;;;;;;;;;;;;21.21;49.99;101287.69;5154225;27;20067;-35
2022/09/19 01:04:32;;;;;;;;;;;;;;;21.22;49.93;101292.13;5135547;27;20015;-35
2022/09/19 01:07:03;;;;;;;;;;;;;;;21.21;49.95;101285.75;5153566;27;19978;-35
2022/09/19 01:09:48;;;;;;;;;;;;;;;21.19;49.97;101287.97;5149192;27;20014;-35
2022/09/19 01:12:33;;;;;;;;;;;;;;;21.20;49.94;101288.78;5151934;27;19973;-35
2022/09/19 01:15:05;;;;;;;;;;;;;;;21.21;49.80;101284.94;5140529;27;20365;-35
2022/09/19 01:20:17;;;;;;;;;;;;;;;21.21;49.88;101288.53;5166935;27;20624;-35
2022/09/19 01:23:05;;;;;;;;;;;;;;;21.21;49.92;101288.53;5165546;27;20018;-35
2022/09/19 01:25:33;;;;;;;;;;;;;;;21.19;50.01;101301.81;5148147;27;20014;-36
2022/09/19 01:28:10;;;;;;;;;;;;;;;21.21;49.95;101298.78;5147221;27;19952;-35
2022/09/19 01:30:37;;;;;;;;;;;;;;;21.19;49.98;101301.00;5147783;27;20098;-36
2022/09/19 01:33:09;;;;;;;;;;;;;;;21.21;49.92;101304.31;5164263;27;20429;-35
2022/09/19 01:35:37;;;;;;;;;;;;;;;21.19;50.06;101303.75;5144579;27;20000;-35
2022/09/19 01:38:08;;;;;;;;;;;;;;;21.19;49.83;101299.03;5139561;27;20026;-35
2022/09/19 01:40:33;;;;;;;;;;;;;;;21.17;50.07;101301.28;5144677;27;20015;-35
2022/09/19 01:42:59;;;;;;;;;;;;;;;21.20;49.93;101309.03;5159491;27;19927;-35
2022/09/19 01:45:27;;;;;;;;;;;;;;;21.20;50.01;101311.81;5124455;27;20353;-35
2022/09/19 01:48:11;;;;;;;;;;;;;;;21.22;49.83;101312.31;5141941;27;20453;-35
2022/09/19 01:53:44;;;;;;;;;;;;;;;21.19;49.91;101323.16;5182338;27;20424;-35
2022/09/19 01:56:11;;;;;;;;;;;;;;;21.19;49.89;101321.19;5152689;27;20022;-36
2022/09/19 01:58:40;;;;;;;;;;;;;;;21.20;49.94;101322.03;5168407;27;20011;-35
2022/09/19 02:01:08;;;;;;;;;;;;;;;21.18;49.81;101319.53;5165900;27;20396;-36
2022/09/19 02:03:54;;;;;;;;;;;;;;;21.17;49.91;101334.50;5166502;27;19959;-35
2022/09/19 02:06:27;;;;;;;;;;;;;;;21.18;49.89;101324.25;5149676;27;20021;-35
2022/09/19 02:09:09;;;;;;;;;;;;;;;21.20;49.89;101341.41;5147267;27;20034;-36
2022/09/19 02:11:35;;;;;;;;;;;;;;;21.19;49.87;101328.69;5166340;27;20420;-36
2022/09/19 02:14:02;;;;;;;;;;;;;;;21.18;49.88;101338.13;5168433;27;19931;-36
2022/09/19 02:16:36;;;;;;;;;;;;;;;21.19;49.86;101328.69;5165153;27;20017;-35
2022/09/19 02:19:07;;;;;;;;;;;;;;;21.18;49.95;101338.94;5148001;27;19931;-35
2022/09/19 02:21:37;;;;;;;;;;;;;;;21.18;49.95;101336.16;5167424;27;19989;-36
2022/09/19 02:24:06;;;;;;;;;;;;;;;21.18;49.89;101332.56;5167381;27;20024;-36
2022/09/19 02:26:32;;;;;;;;;;;;;;;21.19;49.91;101345.31;5148798;27;20021;-36
2022/09/19 02:28:58;;;;;;;;;;;;;;;21.19;49.93;101331.44;5166814;27;20007;-36
2022/09/19 02:31:26;;;;;;;;;;;;;;;21.18;49.92;101327.84;5166856;27;19922;-35
2022/09/19 02:33:53;;;;;;;;;;;;;;;21.18;49.75;101336.16;5148501;27;19923;-36
2022/09/19 02:36:23;;;;;;;;;;;;;;;21.18;49.94;101338.13;5166617;27;20321;-35
2022/09/19 02:38:51;;;;;;;;;;;;;;;21.17;49.73;101342.81;5165653;27;20143;-35
2022/09/19 02:41:29;;;;;;;;;;;;;;;21.18;49.79;101340.88;5147446;27;20017;-35
2022/09/19 02:43:57;;;;;;;;;;;;;;;21.18;49.92;101343.66;5167840;27;20025;-36
2022/09/19 02:46:28;;;;;;;;;;;;;;;21.18;49.85;101340.88;5143139;27;19975;-35
2022/09/19 02:48:55;;;;;;;;;;;;;;;21.18;49.78;101338.13;5165001;27;20017;-36
2022/09/19 02:51:23;;;;;;;;;;;;;;;21.17;50.02;101347.53;5167153;27;20037;-35
2022/09/19 02:53:51;;;;;;;;;;;;;;;21.17;49.94;101342.81;5165424;27;20013;-35
2022/09/19 02:56:18;;;;;;;;;;;;;;;21.17;49.82;101353.09;5147696;27;19977;-36
2022/09/19 02:58:46;;;;;;;;;;;;;;;21.18;49.85;101349.19;5167205;27;20061;-35
2022/09/19 03:01:14;;;;;;;;;;;;;;;21.17;49.93;101356.69;5166095;27;20820;-35
2022/09/19 03:04:14;;;;;;;;;;;;;;;21.17;49.91;101364.97;5158634;27;19931;-36
2022/09/19 03:06:30;;;;;;;;;;;;;;;21.18;49.94;101361.09;5121551;27;19985;-36
2022/09/19 03:08:56;;;;;;;;;;;;;;;21.16;49.82;101357.78;5133693;27;19958;-35
2022/09/19 03:11:22;;;;;;;;;;;;;;;21.16;49.99;101362.50;5152298;27;20398;-35
2022/09/19 03:13:47;;;;;;;;;;;;;;;21.16;49.92;101368.06;5133472;27;19923;-36
2022/09/19 03:16:14;;;;;;;;;;;;;;;21.16;49.88;101357.78;5149679;27;19961;-36
2022/09/19 03:18:40;;;;;;;;;;;;;;;21.15;49.74;101366.38;5152878;27;19941;-35
2022/09/19 03:21:07;;;;;;;;;;;;;;;21.17;49.93;101366.94;5134461;27;20088;-36
2022/09/19 03:23:35;;;;;;;;;;;;;;;21.16;49.84;101366.09;5152963;27;19985;-36
2022/09/19 03:26:01;;;;;;;;;;;;;;;21.14;49.89;101368.31;5132292;27;20421;-36
2022/09/19 03:28:27;;;;;;;;;;;;;;;21.16;49.82;101368.06;5152551;27;20010;-36
2022/09/19 03:30:56;;;;;;;;;;;;;;;21.16;49.78;101368.06;5151650;27;19927;-36
2022/09/19 03:33:23;;;;;;;;;;;;;;;21.16;49.90;101370.81;5152147;27;20032;-36
2022/09/19 03:35:50;;;;;;;;;;;;;;;21.17;49.85;101367.75;5149936;27;20017;-36
2022/09/19 03:38:16;;;;;;;;;;;;;;;21.16;49.90;101371.66;5152659;27;20018;-36
2022/09/19 03:40:41;;;;;;;;;;;;;;;21.16;49.81;101381.91;5151977;27;19931;-36
2022/09/19 03:43:07;;;;;;;;;;;;;;;21.17;49.94;101372.47;5151384;27;19923;-35
2022/09/19 03:45:33;;;;;;;;;;;;;;;21.15;49.87;101375.50;5137192;27;19934;-35
2022/09/19 03:47:58;;;;;;;;;;;;;;;21.15;49.95;101375.50;5142814;27;20357;-35
2022/09/19 03:50:24;;;;;;;;;;;;;;;21.16;49.82;101370.81;5141954;27;19974;-36
2022/09/19 03:52:50;;;;;;;;;;;;;;;21.15;49.93;101369.13;5122930;27;20326;-35
2022/09/19 03:55:15;;;;;;;;;;;;;;;21.16;49.95;101374.41;5125587;27;20023;-35
2022/09/19 03:57:41;;;;;;;;;;;;;;;21.17;49.78;101381.59;5122029;27;19926;-35
2022/09/19 04:00:07;;;;;;;;;;;;;;;21.16;49.88;101374.41;5121112;27;20349;-35
2022/09/19 04:02:33;;;;;;;;;;;;;;;21.17;49.48;101375.25;5139954;27;19923;-35
2022/09/19 04:04:58;;;;;;;;;;;;;;;21.16;49.96;101379.94;5140004;27;19976;-35
2022/09/19 04:07:27;;;;;;;;;;;;;;;21.15;49.87;101380.22;5120289;27;20018;-35
2022/09/19 04:09:54;;;;;;;;;;;;;;;21.15;49.83;101383.81;5141983;27;20064;-35
2022/09/19 04:12:19;;;;;;;;;;;;;;;21.15;49.82;101386.56;5136871;27;20010;-35
2022/09/19 04:14:45;;;;;;;;;;;;;;;21.16;49.87;101385.50;5138611;27;19930;-35
2022/09/19 04:17:11;;;;;;;;;;;;;;;21.14;49.90;101382.16;5136351;27;20028;-35
2022/09/19 04:19:52;;;;;;;;;;;;;;;21.15;49.86;101388.53;5123382;27;19927;-34
2022/09/19 04:22:18;;;;;;;;;;;;;;;21.16;49.97;101393.81;5125594;27;20029;-36
2022/09/19 04:24:44;;;;;;;;;;;;;;;21.16;49.79;101392.97;5141024;27;19963;-35
2022/09/19 04:27:13;;;;;;;;;;;;;;;21.17;49.87;101400.16;5138698;27;19966;-35
2022/09/19 04:29:42;;;;;;;;;;;;;;;21.14;49.87;101398.78;5120711;27;20022;-36
2022/09/19 04:32:08;;;;;;;;;;;;;;;21.15;49.80;101400.44;5140312;27;19924;-36
2022/09/19 04:34:34;;;;;;;;;;;;;;;21.15;49.89;101397.66;5140217;27;20018;-35
2022/09/19 04:37:03;;;;;;;;;;;;;;;21.17;49.83;101402.94;5140572;27;20283;-35
2022/09/19 04:39:29;;;;;;;;;;;;;;;21.14;49.80;101404.31;5138207;27;19966;-35
2022/09/19 04:41:55;;;;;;;;;;;;;;;21.14;49.49;101407.09;5121431;27;19971;-35
2022/09/19 04:44:22;;;;;;;;;;;;;;;21.11;48.91;101399.34;5122680;27;20393;-35
2022/09/19 04:46:50;;;;;;;;;;;;;;;21.13;48.81;101407.38;5136906;27;20265;-35
2022/09/19 04:49:16;;;;;;;;;;;;;;;21.12;48.92;101403.78;5141366;27;20421;-35
2022/09/19 04:51:42;;;;;;;;;;;;;;;21.13;48.76;101410.97;5122033;27;20010;-35
2022/09/19 04:54:08;;;;;;;;;;;;;;;21.12;49.01;101412.09;5146591;27;19942;-35
2022/09/19 04:56:34;;;;;;;;;;;;;;;21.11;49.18;101415.94;5144082;27;20010;-36
2022/09/19 04:58:59;;;;;;;;;;;;;;;21.11;48.77;101421.50;5148149;27;19972;-36
2022/09/19 05:01:25;;;;;;;;;;;;;;;21.10;48.48;101419.84;5137905;27;19923;-35
2022/09/19 05:03:51;;;;;;;;;;;;;;;21.10;48.33;101425.38;5144202;27;19954;-35
2022/09/19 05:06:17;;;;;;;;;;;;;;;21.10;48.01;101424.56;5117999;27;20440;-35
2022/09/19 05:08:43;;;;;;;;;;;;;;;21.09;48.32;101425.66;5141659;27;20397;-35
2022/09/19 05:11:09;;;;;;;;;;;;;;;21.05;47.99;101428.16;5116476;27;19989;-35
2022/09/19 05:13:38;;;;;;;;;;;;;;;21.07;47.85;101428.72;5137783;27;20425;-35
2022/09/19 05:16:04;;;;;;;;;;;;;;;21.01;46.01;101433.44;5141939;27;20000;-35
2022/09/19 05:18:34;;;;;;;;;;;;;;;21.02;45.86;101437.84;5139501;27;19974;-35
2022/09/19 05:21:02;;;;;;;;;;;;;;;21.00;45.48;101444.81;5123519;27;20005;-35
2022/09/19 05:23:29;;;;;;;;;;;;;;;21.01;45.48;101441.75;5140093;27;20026;-35
2022/09/19 05:25:55;;;;;;;;;;;;;;;21.01;45.20;101438.16;5122101;27;20022;-35
2022/09/19 05:28:23;;;;;;;;;;;;;;;20.16;43.06;101446.19;5139737;27;19923;-40
2022/09/19 05:30:54;;;;;;;;;;;;;;;20.16;44.45;101455.31;5136300;27;20334;-37
2022/09/19 05:33:23;;;;;;;;;;;;;;;20.62;44.01;101452.59;5135961;27;20412;-37
2022/09/19 05:35:50;;;;;;;;;;;;;;;20.83;44.26;101453.41;5135940;27;20022;-38
2022/09/19 05:38:16;;;;;;;;;;;;;;;20.90;44.45;101447.59;5138199;27;20017;-38
2022/09/19 05:40:42;;;;;;;;;;;;;;;20.95;44.44;101453.13;5120334;27;19930;-38
2022/09/19 05:43:07;;;;;;;;;;;;;;;20.97;44.99;101454.50;5138243;27;20026;-37
2022/09/19 05:45:34;;;;;;;;;;;;;;;20.99;45.02;101462.53;5135457;27;20092;-37
2022/09/19 05:48:00;;;;;;;;;;;;;;;21.01;45.28;101450.03;5132173;27;20013;-38
2022/09/19 05:50:26;;;;;;;;;;;;;;;21.05;45.89;101459.44;5137041;27;20093;-37
2022/09/19 05:55:37;;;;;;;;;;;;;;;21.03;46.01;101464.47;5104864;27;20010;-38
2022/09/19 05:58:06;;;;;;;;;;;;;;;21.05;46.21;101467.75;5127421;27;20054;-38
2022/09/19 06:00:31;;;;;;;;;;;;;;;21.09;46.50;101478.28;5128497;27;20010;-38
2022/09/19 06:02:58;;;;;;;;;;;;;;;21.16;47.22;101479.66;5112487;27;20021;-39
2022/09/19 06:05:24;;;;;;;;;;;;;;;21.13;46.83;101473.84;5124713;27;20026;-38
2022/09/19 06:07:51;;;;;;;;;;;;;;;21.13;47.15;101490.47;5129866;27;20521;-37
2022/09/19 06:10:17;;;;;;;;;;;;;;;21.10;47.03;101477.16;5128061;27;19968;-37
2022/09/19 06:12:43;;;;;;;;;;;;;;;21.01;47.04;101483.28;5111309;27;20018;-37
2022/09/19 06:15:09;;;;;;;;;;;;;;;21.09;46.67;101487.44;5123896;27;20068;-38
2022/09/19 06:17:35;;;;;;;;;;;;;;;21.13;46.97;101493.25;5128798;27;19992;-37
2022/09/19 06:20:01;;;;;;;;;;;;;;;21.11;46.80;101492.66;5128523;27;19931;-37
2022/09/19 06:22:26;;;;;;;;;;;;;;;21.07;47.04;101489.66;5128893;27;21703;-38
2022/09/19 06:24:52;;;;;;;;;;;;;;;21.10;47.30;101497.38;5132400;27;19939;-37
2022/09/19 06:27:17;;;;;;;;;;;;;;;21.10;47.56;101497.38;5133594;27;20502;-38
2022/09/19 06:29:43;;;;;;;;;;;;;;;21.16;47.56;101503.75;5135148;27;20209;-40
2022/09/19 06:32:09;;;;;;;;;;;;;;;21.14;47.85;101504.03;5132900;27;19961;-38
2022/09/19 06:34:35;;;;;;;;;;;;;;;21.13;47.92;101505.16;5129059;27;20274;-40
2022/09/19 06:37:20;;;;;;;;;;;;;;;21.15;47.99;101510.38;5113888;27;19927;-37
2022/09/19 06:39:46;;;;;;;;;;;;;;;21.13;48.79;101513.44;5128399;27;20140;-37
2022/09/19 06:42:12;;;;;;;;;;;;;;;21.14;48.64;101511.50;5133960;27;19931;-37
2022/09/19 06:44:37;;;;;;;;;;;;;;;20.80;48.67;101523.16;5127260;27;19978;-42
2022/09/19 06:47:04;;;;;;;;;;;;;;;20.95;48.88;101514.03;5132261;27;20087;-37
2022/09/19 06:49:30;;;;;;;;;;;;;;;21.07;48.63;101520.13;5132865;27;20398;-37
2022/09/19 06:51:56;;;;;;;;;;;;;;;21.13;48.51;101526.47;5133716;27;19923;-37
2022/09/19 06:54:23;;;;;;;;;;;;;;;21.15;48.41;101527.84;5127066;27;20462;-40
2022/09/19 06:56:49;;;;;;;;;;;;;;;21.15;48.49;101524.25;5127637;27;19958;-37
2022/09/19 06:59:16;;;;;;;;;;;;;;;21.14;48.50;101528.94;5131034;27;20487;-37
2022/09/19 07:01:42;;;;;;;;;;;;;;;21.17;48.61;101541.41;5121748;27;20022;-38
2022/09/19 07:04:08;;;;;;;;;;;;;;;21.16;48.67;101543.38;5117558;27;20561;-36
2022/09/19 07:06:35;;;;;;;;;;;;;;;21.17;48.68;101539.47;5125184;27;19973;-38
2022/09/19 07:09:02;;;;;;;;;;;;;;;21.17;48.51;101581.03;5125906;27;20055;-37
2022/09/19 07:11:28;;;;;;;;;;;;;;;21.26;48.29;101536.97;5126832;27;20064;-36
2022/09/19 07:13:55;;;;;;;;;;;;;;;21.35;48.78;101546.41;5123945;27;19939;-40
2022/09/19 07:16:21;;;;;;;;;;;;;;;21.30;48.99;101547.22;5128062;27;20036;-37
2022/09/19 07:18:46;;;;;;;;;;;;;;;21.21;48.74;101543.34;5129788;27;20323;-37
2022/09/19 07:21:12;;;;;;;;;;;;;;;21.20;49.13;101544.47;5126376;27;20032;-37
2022/09/19 07:23:38;;;;;;;;;;;;;;;21.17;48.90;101547.78;5131119;27;19931;-37
2022/09/19 07:26:04;;;;;;;;;;;;;;;21.14;48.70;101548.34;5129601;27;20365;-37
2022/09/19 07:28:30;;;;;;;;;;;;;;;21.15;49.17;101551.94;5134992;27;19923;-37
2022/09/19 07:30:57;;;;;;;;;;;;;;;21.13;48.71;101560.53;5136921;27;19927;-38
2022/09/19 07:33:24;;;;;;;;;;;;;;;21.15;48.63;101551.94;5111799;27;19974;-38
2022/09/19 07:35:51;;;;;;;;;;;;;;;21.14;48.42;101559.41;5129245;27;20077;-42
2022/09/19 07:38:17;;;;;;;;;;;;;;;21.16;48.49;101554.44;5108609;27;19978;-37
2022/09/19 07:40:43;;;;;;;;;;;;;;;21.17;48.38;101563.59;5131387;27;19935;-38
2022/09/19 07:43:11;;;;;;;;;;;;;;;21.20;48.51;101563.00;5130861;27;20353;-38
2022/09/19 07:45:36;;;;;;;;;;;;;;;21.20;48.70;101580.47;5134347;27;19991;-38
2022/09/19 07:48:03;;;;;;;;;;;;;;;21.17;48.40;101572.72;5111705;27;20346;-37
2022/09/19 07:50:28;;;;;;;;;;;;;;;21.18;48.51;101582.69;5131250;27;20014;-38
2022/09/19 07:53:02;;;;;;;;;;;;;;;21.20;48.75;101576.84;5133170;27;20294;-38
2022/09/19 07:55:28;;;;;;;;;;;;;;;21.18;48.67;101584.63;5114067;27;20018;-37
2022/09/19 07:57:55;;;;;;;;;;;;;;;21.17;48.61;101586.56;5124260;27;20781;-38
2022/09/19 08:00:22;;;;;;;;;;;;;;;21.21;48.50;101592.38;5115189;27;20448;-38
2022/09/19 08:02:56;;;;;;;;;;;;;;;21.19;48.88;101592.66;5128943;27;19980;-38
2022/09/19 08:05:22;;;;;;;;;;;;;;;21.21;48.74;101600.69;5107115;27;20433;-38
2022/09/19 08:07:47;;;;;;;;;;;;;;;21.25;49.22;101596.25;5119638;27;19983;-40
2022/09/19 08:10:15;;;;;;;;;;;;;;;21.29;48.67;101600.13;5130899;27;19931;-37
2022/09/19 08:12:43;;;;;;;;;;;;;;;21.28;49.00;101604.00;5130459;27;20006;-38
2022/09/19 08:15:08;;;;;;;;;;;;;;;21.26;48.90;101603.44;5133655;27;20019;-38
2022/09/19 08:17:36;;;;;;;;;;;;;;;21.27;49.26;101600.41;5134322;27;20006;-38
2022/09/19 08:20:02;;;;;;;;;;;;;;;21.30;49.52;101601.78;5129397;27;20002;-37
2022/09/19 08:22:28;;;;;;;;;;;;;;;21.32;49.46;101607.06;5132207;27;20009;-38
2022/09/19 08:24:53;;;;;;;;;;;;;;;21.30;49.26;101607.34;5128092;27;19930;-40
2022/09/19 08:27:19;;;;;;;;;;;;;;;21.18;49.19;101610.38;5130574;27;20254;-38
2022/09/19 08:29:45;;;;;;;;;;;;;;;21.29;49.41;101612.03;5126532;27;19927;-40
2022/09/19 08:32:11;;;;;;;;;;;;;;;21.34;49.40;101611.25;5130297;27;20026;-38
2022/09/19 08:34:37;;;;;;;;;;;;;;;21.34;49.54;101614.00;5125258;27;19923;-39
2022/09/19 08:37:03;;;;;;;;;;;;;;;21.10;49.64;101623.94;5126774;27;20014;-43
2022/09/19 08:39:29;;;;;;;;;;;;;;;20.77;49.46;101620.63;5129782;27;19927;-45
2022/09/19 08:42:15;;;;;;;;;;;;;;;20.57;49.79;101621.41;5130852;27;19935;-47
2022/09/19 08:44:46;;;;;;;;;;;;;;;21.03;48.90;101621.47;5109316;27;20310;-39
2022/09/19 08:47:13;;;;;;;;;;;;;;;21.16;48.45;101631.19;5094911;27;20030;-38
2022/09/19 08:49:41;;;;;;;;;;;;;;;21.21;48.60;101637.53;5107516;27;20361;-38
2022/09/19 08:52:26;;;;;;;;;;;;;;;21.23;48.70;101634.47;5111909;27;20007;-41
2022/09/19 08:54:52;;;;;;;;;;;;;;;21.26;48.63;101633.94;5113870;27;20017;-41
2022/09/19 08:57:26;;;;;;;;;;;;;;;21.26;48.75;101634.75;5118047;27;19980;-40
2022/09/19 08:59:52;;;;;;;;;;;;;;;21.23;48.55;101629.75;5115237;27;20038;-38
2022/09/19 09:02:37;;;;;;;;;;;;;;;21.26;48.55;101634.75;5132614;27;20021;-38
2022/09/19 09:05:29;;;;;;;;;;;;;;;21.26;48.27;101642.25;5110429;27;21069;-42
2022/09/19 09:07:56;;;;;;;;;;;;;;;20.85;47.73;101635.84;5110195;27;20154;-42
2022/09/19 09:10:31;;;;;;;;;;;;;;;20.48;48.63;101634.94;5127261;27;20023;-41
2022/09/19 09:13:01;;;;;;;;;;;;;;;20.37;49.42;101635.16;5127382;27;20483;-42
2022/09/19 09:15:32;;;;;;;;;;;;;;;20.78;48.54;101645.25;5115403;27;19937;-38
2022/09/19 09:21:07;;;;;;;;;;;;;;;21.17;48.09;101639.19;5159351;27;20073;-40
2022/09/19 09:23:37;;;;;;;;;;;;;;;21.23;48.14;101645.56;5115074;27;19935;-40
2022/09/19 09:26:06;;;;;;;;;;;;;;;21.24;48.32;101639.75;5112585;27;20026;-39
2022/09/19 09:28:51;;;;;;;;;;;;;;;21.23;48.06;101631.69;5136486;27;20027;-40
2022/09/19 09:31:24;;;;;;;;;;;;;;;21.26;48.18;101633.94;5121040;27;20462;-40
2022/09/19 09:33:53;;;;;;;;;;;;;;;21.26;48.15;101633.94;5110770;27;20421;-38
2022/09/19 09:36:22;;;;;;;;;;;;;;;21.29;48.24;101634.22;5132978;27;20390;-42
2022/09/19 09:38:52;;;;;;;;;;;;;;;21.11;48.01;101639.47;5134428;27;20258;-38
2022/09/19 09:41:52;;;;;;;;;;;;;;;21.23;47.93;101634.47;5131482;27;20022;-38
2022/09/19 09:46:49;;;;;;;;;;;;;;;21.30;48.01;101629.50;5116616;27;19941;-36
2022/09/19 09:49:15;;;;;;;;;;;;;;;21.32;48.14;101634.78;5112094;28;19985;-37
2022/09/19 09:52:03;;;;;;;;;;;;;;;21.32;48.19;101632.84;5089058;28;20030;-36
2022/09/19 09:57:44;;;;;;;;;;;;;;;21.30;48.26;101630.31;5076462;28;20324;-37
2022/09/19 10:03:49;;;;;;;;;;;;;;;21.33;48.19;101641.97;5083658;28;20038;-38
2022/09/19 10:06:12;;;;;;;;;;;;;;;21.30;48.27;101632.25;5079984;28;20091;-39
2022/09/19 10:11:39;;;;;;;;;;;;;;;21.28;48.14;101631.69;5170459;27;19937;-37
2022/09/19 10:14:28;;;;;;;;;;;;;;;21.30;48.45;101624.78;5136471;27;19932;-36
2022/09/19 10:16:56;;;;;;;;;;;;;;;21.03;47.66;101622.31;5153582;27;20035;-37
2022/09/19 10:19:27;;;;;;;;;;;;;;;21.23;48.46;101624.22;5153808;27;20350;-36
2022/09/19 10:21:53;;;;;;;;;;;;;;;21.32;48.30;101627.28;5103215;27;20614;-36
2022/09/19 10:24:40;;;;;;;;;;;;;;;21.21;48.29;101620.91;5152084;27;19985;-40
2022/09/19 10:27:23;;;;;;;;;;;;;;;21.30;48.18;101615.63;5136276;27;19935;-42
2022/09/19 10:29:50;;;;;;;;;;;;;;;21.28;47.88;101618.66;5135062;27;20436;-39
2022/09/19 10:32:19;;;;;;;;;;;;;;;21.31;48.04;101622.84;5132448;27;20083;-39
2022/09/19 10:34:45;;;;;;;;;;;;;;;21.34;48.06;101608.47;5146995;27;20058;-39
2022/09/19 10:37:12;;;;;;;;;;;;;;;21.34;48.04;101610.41;5133230;27;19968;-39
2022/09/19 10:39:42;;;;;;;;;;;;;;;21.34;47.83;101611.25;5149569;27;20407;-42
2022/09/19 10:42:30;;;;;;;;;;;;;;;21.35;48.24;101610.13;5135092;27;19923;-39
2022/09/19 10:44:58;;;;;;;;;;;;;;;21.34;48.25;101613.19;5131643;27;19971;-39
2022/09/19 10:47:25;;;;;;;;;;;;;;;21.36;47.99;101620.09;5146658;27;20546;-41
2022/09/19 10:49:58;;;;;;;;;;;;;;;21.40;48.27;101617.59;5147352;27;19938;-43
2022/09/19 10:52:30;;;;;;;;;;;;;;;21.40;48.25;101620.38;5107533;27;19987;-42
2022/09/19 10:55:20;;;;;;;;;;;;;;;21.40;48.24;101629.50;5129734;27;20384;-40
2022/09/19 10:57:48;;;;;;;;;;;;;;;21.39;48.39;101636.16;5122181;27;20057;-42
2022/09/19 11:00:22;;;;;;;;;;;;;;;21.33;48.37;101620.66;5144948;27;20006;-41
2022/09/19 11:02:56;;;;;;;;;;;;;;;21.34;48.55;101629.81;5115655;27;19935;-38
2022/09/19 11:05:26;;;;;;;;;;;;;;;21.36;48.86;101633.13;5158097;27;20483;-38
2022/09/19 11:07:54;;;;;;;;;;;;;;;21.36;48.83;101630.34;5131048;27;20742;-37
2022/09/19 11:10:37;;;;;;;;;;;;;;;21.40;48.84;101635.03;5158599;27;19977;-37
2022/09/19 11:13:11;;;;;;;;;;;;;;;21.39;48.74;101627.03;5155073;27;20355;-37
2022/09/19 11:15:41;;;;;;;;;;;;;;;21.40;49.04;101620.38;5132439;27;20724;-42
2022/09/19 11:18:10;;;;;;;;;;;;;;;21.41;49.10;101614.53;5153465;27;20387;-39
2022/09/19 11:20:40;;;;;;;;;;;;;;;21.42;49.13;101607.91;5141239;27;20029;-38
2022/09/19 11:23:17;;;;;;;;;;;;;;;21.39;49.33;101602.09;5137023;27;20014;-41
2022/09/19 11:26:03;;;;;;;;;;;;;;;21.38;49.34;101604.03;5122573;27;19976;-42
2022/09/19 11:31:33;;;;;;;;;;;;;;;21.42;49.64;101605.13;5147030;27;20014;-36
2022/09/19 11:34:23;;;;;;;;;;;;;;;21.18;50.42;101613.16;5110761;27;20369;-37
2022/09/19 11:37:29;;;;;;;;;;;;;;;21.33;50.10;101611.50;5117798;27;20362;-37
2022/09/19 11:40:04;;;;;;;;;;;;;;;21.34;50.49;101608.47;5115942;27;20274;-37
2022/09/19 11:42:35;;;;;;;;;;;;;;;21.40;50.42;101609.28;5130210;27;19928;-37
2022/09/19 11:45:17;;;;;;;;;;;;;;;21.38;50.35;101606.81;5110541;27;20479;-36
2022/09/19 11:47:50;;;;;;;;;;;;;;;21.39;50.03;101608.44;5109896;27;20011;-37
2022/09/19 11:50:29;;;;;;;;;;;;;;;21.41;49.79;101611.75;5135142;27;20025;-37
2022/09/19 11:53:14;;;;;;;;;;;;;;;21.40;49.74;101614.81;5141667;27;20026;-36
2022/09/19 11:55:43;;;;;;;;;;;;;;;21.41;49.80;101641.41;5115832;27;20068;-37
2022/09/19 11:58:18;;;;;;;;;;;;;;;21.41;49.68;101658.88;5133071;27;19931;-37
2022/09/19 12:00:55;;;;;;;;;;;;;;;21.43;49.52;101673.28;5114529;27;19931;-40
2022/09/19 12:03:24;;;;;;;;;;;;;;;21.40;49.02;101676.59;5116075;27;19981;-39
2022/09/19 12:05:58;;;;;;;;;;;;;;;21.40;49.00;101684.09;5114277;27;19931;-37
2022/09/19 12:08:32;;;;;;;;;;;;;;;21.40;49.45;101689.63;5134242;27;20124;-37
2022/09/19 12:11:07;;;;;;;;;;;;;;;21.40;49.67;101696.00;5118878;27;19928;-38
2022/09/19 12:13:40;;;;;;;;;;;;;;;21.41;49.60;101697.66;5117412;27;19987;-38
2022/09/19 12:16:07;;;;;;;;;;;;;;;21.40;49.73;101698.78;5109143;27;20025;-36
2022/09/19 12:18:50;;;;;;;;;;;;;;;21.40;49.50;101682.16;5130590;27;19928;-36
2022/09/19 12:21:16;;;;;;;;;;;;;;;21.44;49.59;101685.22;5117314;27;20321;-38
2022/09/19 12:26:29;;;;;;;;;;;;;;;21.47;49.63;101668.84;5117567;27;20014;-36
2022/09/19 12:28:57;;;;;;;;;;;;;;;21.10;50.58;101665.50;5132386;27;20048;-37
2022/09/19 12:31:25;;;;;;;;;;;;;;;21.36;50.03;101669.97;5129897;27;20034;-37
2022/09/19 12:34:02;;;;;;;;;;;;;;;21.43;50.04;101656.66;5134743;27;21363;-38
2022/09/19 12:36:30;;;;;;;;;;;;;;;21.46;50.20;101661.66;5111276;27;20369;-39
2022/09/19 12:39:05;;;;;;;;;;;;;;;21.46;50.31;101672.75;5110083;27;20014;-40
2022/09/19 12:41:40;;;;;;;;;;;;;;;21.46;50.67;101671.88;5130386;27;20026;-38
2022/09/19 12:44:26;;;;;;;;;;;;;;;21.48;50.51;101664.97;5105127;27;19985;-39
2022/09/19 12:47:00;;;;;;;;;;;;;;;21.46;50.38;101666.34;5098735;28;20015;-39
2022/09/19 12:49:45;;;;;;;;;;;;;;;21.45;49.88;101670.22;5101331;27;20357;-39
2022/09/19 12:52:22;;;;;;;;;;;;;;;21.43;49.55;101675.22;5121089;27;20413;-41
2022/09/19 12:54:52;;;;;;;;;;;;;;;21.43;49.59;101673.28;5121792;27;20023;-39
2022/09/19 12:57:22;;;;;;;;;;;;;;;21.44;49.84;101665.81;5114695;27;20697;-41
2022/09/19 12:59:54;;;;;;;;;;;;;;;21.44;49.83;101671.34;5126244;27;19930;-38
2022/09/19 13:02:43;;;;;;;;;;;;;;;21.43;49.84;101670.53;5115737;27;20361;-39
2022/09/19 13:05:28;;;;;;;;;;;;;;;21.45;49.82;101662.75;5135337;27;19930;-39
2022/09/19 13:07:56;;;;;;;;;;;;;;;21.48;49.38;101653.88;5136599;27;20359;-39
2022/09/19 13:10:24;;;;;;;;;;;;;;;21.46;49.21;101652.50;5131898;27;20079;-39
2022/09/19 13:12:59;;;;;;;;;;;;;;;21.45;49.32;101657.19;5141634;27;20026;-39
2022/09/19 13:15:26;;;;;;;;;;;;;;;21.44;49.22;101650.00;5141341;27;20426;-38
2022/09/19 13:23:40;;;;;;;;;;;;;;;21.42;48.97;101657.78;5125308;27;20006;-39
2022/09/19 13:28:51;;;;;;;;;;;;;;;21.36;49.47;101656.09;5167859;27;20003;-36